sensor_id;sensor_type;location;lat;lon;timestamp;P1;durP1;ratioP1;P2;durP2;ratioP2
60211;SDS011;46079;48.686;15.598;2023-02-25T00:00:30;6.38;;;2.10;;
60211;SDS011;46079;48.686;15.598;2023-02-25T00:02:56;6.30;;;2.13;;
60211;SDS011;46079;48.686;15.598;2023-02-25T00:05:22;5.47;;;1.95;;
60211;SDS011;46079;48.686;15.598;2023-02-25T00:07:49;7.10;;;2.33;;
60211;SDS011;46079;48.686;15.598;2023-02-25T00:10:15;6.30;;;1.92;;
60211;SDS011;46079;48.686;15.598;2023-02-25T00:12:41;6.30;;;1.95;;
60211;SDS011;46079;48.686;15.598;2023-02-25T00:15:07;5.68;;;1.80;;
60211;SDS011;46079;48.686;15.598;2023-02-25T00:17:33;6.75;;;2.20;;
60211;SDS011;46079;48.686;15.598;2023-02-25T00:19:59;6.07;;;1.92;;
60211;SDS011;46079;48.686;15.598;2023-02-25T00:22:25;6.78;;;2.30;;
60211;SDS011;46079;48.686;15.598;2023-02-25T00:24:55;5.60;;;1.67;;
60211;SDS011;46079;48.686;15.598;2023-02-25T00:27:21;6.90;;;1.98;;
60211;SDS011;46079;48.686;15.598;2023-02-25T00:29:51;6.47;;;1.98;;
60211;SDS011;46079;48.686;15.598;2023-02-25T00:32:17;6.78;;;2.00;;
60211;SDS011;46079;48.686;15.598;2023-02-25T00:34:43;6.10;;;2.00;;
60211;SDS011;46079;48.686;15.598;2023-02-25T00:37:08;5.30;;;1.70;;
60211;SDS011;46079;48.686;15.598;2023-02-25T00:39:33;8.38;;;2.38;;
60211;SDS011;46079;48.686;15.598;2023-02-25T00:42:08;6.18;;;1.90;;
60211;SDS011;46079;48.686;15.598;2023-02-25T00:44:39;6.47;;;2.10;;
60211;SDS011;46079;48.686;15.598;2023-02-25T00:47:08;6.53;;;2.13;;
60211;SDS011;46079;48.686;15.598;2023-02-25T00:49:34;5.72;;;1.75;;
60211;SDS011;46079;48.686;15.598;2023-02-25T00:51:59;5.43;;;1.83;;
60211;SDS011;46079;48.686;15.598;2023-02-25T00:54:25;6.07;;;2.00;;
60211;SDS011;46079;48.686;15.598;2023-02-25T00:56:51;6.25;;;1.80;;
60211;SDS011;46079;48.686;15.598;2023-02-25T00:59:17;5.97;;;1.90;;
60211;SDS011;46079;48.686;15.598;2023-02-25T01:01:42;5.10;;;1.90;;
60211;SDS011;46079;48.686;15.598;2023-02-25T01:04:08;5.72;;;1.83;;
60211;SDS011;46079;48.686;15.598;2023-02-25T01:06:34;6.25;;;2.05;;
60211;SDS011;46079;48.686;15.598;2023-02-25T01:09:02;5.72;;;1.85;;
60211;SDS011;46079;48.686;15.598;2023-02-25T01:11:33;5.65;;;1.90;;
60211;SDS011;46079;48.686;15.598;2023-02-25T01:14:00;5.97;;;1.77;;
60211;SDS011;46079;48.686;15.598;2023-02-25T01:16:29;5.05;;;1.70;;
60211;SDS011;46079;48.686;15.598;2023-02-25T01:18:56;5.85;;;1.80;;
60211;SDS011;46079;48.686;15.598;2023-02-25T01:21:33;6.00;;;1.98;;
60211;SDS011;46079;48.686;15.598;2023-02-25T01:24:01;5.80;;;1.90;;
60211;SDS011;46079;48.686;15.598;2023-02-25T01:26:30;6.47;;;2.10;;
60211;SDS011;46079;48.686;15.598;2023-02-25T01:28:58;6.47;;;1.90;;
60211;SDS011;46079;48.686;15.598;2023-02-25T01:31:23;6.25;;;1.90;;
60211;SDS011;46079;48.686;15.598;2023-02-25T01:33:53;7.75;;;1.90;;
60211;SDS011;46079;48.686;15.598;2023-02-25T01:36:21;6.15;;;2.00;;
60211;SDS011;46079;48.686;15.598;2023-02-25T01:38:46;5.20;;;1.70;;
60211;SDS011;46079;48.686;15.598;2023-02-25T01:41:12;6.32;;;1.90;;
60211;SDS011;46079;48.686;15.598;2023-02-25T01:43:37;5.75;;;1.90;;
60211;SDS011;46079;48.686;15.598;2023-02-25T01:46:04;6.60;;;1.90;;
60211;SDS011;46079;48.686;15.598;2023-02-25T01:48:34;6.45;;;2.00;;
60211;SDS011;46079;48.686;15.598;2023-02-25T01:51:05;6.32;;;1.88;;
60211;SDS011;46079;48.686;15.598;2023-02-25T01:53:36;5.13;;;1.55;;
60211;SDS011;46079;48.686;15.598;2023-02-25T01:56:09;5.47;;;1.80;;
60211;SDS011;46079;48.686;15.598;2023-02-25T01:58:36;5.78;;;1.85;;
60211;SDS011;46079;48.686;15.598;2023-02-25T02:01:03;7.15;;;1.90;;
60211;SDS011;46079;48.686;15.598;2023-02-25T02:03:35;5.75;;;1.70;;
60211;SDS011;46079;48.686;15.598;2023-02-25T02:11:00;5.50;;;1.70;;
60211;SDS011;46079;48.686;15.598;2023-02-25T02:13:27;5.63;;;1.80;;
60211;SDS011;46079;48.686;15.598;2023-02-25T02:16:04;6.30;;;1.60;;
60211;SDS011;46079;48.686;15.598;2023-02-25T02:18:56;6.03;;;1.70;;
60211;SDS011;46079;48.686;15.598;2023-02-25T02:32:52;4.60;;;1.60;;
60211;SDS011;46079;48.686;15.598;2023-02-25T02:41:23;5.22;;;1.50;;
60211;SDS011;46079;48.686;15.598;2023-02-25T02:44:02;5.53;;;1.65;;
60211;SDS011;46079;48.686;15.598;2023-02-25T02:46:39;4.82;;;1.60;;
60211;SDS011;46079;48.686;15.598;2023-02-25T02:52:01;6.18;;;1.50;;
60211;SDS011;46079;48.686;15.598;2023-02-25T02:54:31;4.25;;;1.50;;
60211;SDS011;46079;48.686;15.598;2023-02-25T02:56:59;5.15;;;1.60;;
60211;SDS011;46079;48.686;15.598;2023-02-25T02:59:36;4.72;;;1.50;;
60211;SDS011;46079;48.686;15.598;2023-02-25T03:04:41;6.57;;;2.00;;
60211;SDS011;46079;48.686;15.598;2023-02-25T03:07:09;4.65;;;1.63;;
60211;SDS011;46079;48.686;15.598;2023-02-25T03:09:51;5.93;;;1.77;;
60211;SDS011;46079;48.686;15.598;2023-02-25T03:12:19;5.63;;;1.52;;
60211;SDS011;46079;48.686;15.598;2023-02-25T03:14:45;4.97;;;1.58;;
60211;SDS011;46079;48.686;15.598;2023-02-25T03:17:12;5.22;;;1.58;;
60211;SDS011;46079;48.686;15.598;2023-02-25T03:23:02;7.13;;;2.10;;
60211;SDS011;46079;48.686;15.598;2023-02-25T03:25:41;6.78;;;1.77;;
60211;SDS011;46079;48.686;15.598;2023-02-25T03:30:58;5.30;;;1.52;;
60211;SDS011;46079;48.686;15.598;2023-02-25T03:33:31;4.25;;;1.60;;
60211;SDS011;46079;48.686;15.598;2023-02-25T03:35:59;5.40;;;1.50;;
60211;SDS011;46079;48.686;15.598;2023-02-25T03:38:30;4.90;;;1.60;;
60211;SDS011;46079;48.686;15.598;2023-02-25T03:40:59;7.25;;;1.70;;
60211;SDS011;46079;48.686;15.598;2023-02-25T03:43:30;5.15;;;1.67;;
60211;SDS011;46079;48.686;15.598;2023-02-25T03:46:01;5.70;;;1.55;;
60211;SDS011;46079;48.686;15.598;2023-02-25T03:48:29;5.70;;;1.80;;
60211;SDS011;46079;48.686;15.598;2023-02-25T03:51:00;5.22;;;1.70;;
60211;SDS011;46079;48.686;15.598;2023-02-25T03:53:27;5.40;;;1.60;;
60211;SDS011;46079;48.686;15.598;2023-02-25T03:55:55;5.43;;;1.50;;
60211;SDS011;46079;48.686;15.598;2023-02-25T03:58:22;5.93;;;1.70;;
60211;SDS011;46079;48.686;15.598;2023-02-25T04:00:49;4.25;;;1.42;;
60211;SDS011;46079;48.686;15.598;2023-02-25T04:03:20;6.10;;;1.92;;
60211;SDS011;46079;48.686;15.598;2023-02-25T04:05:45;5.85;;;1.80;;
60211;SDS011;46079;48.686;15.598;2023-02-25T04:08:13;5.07;;;1.50;;
60211;SDS011;46079;48.686;15.598;2023-02-25T04:10:42;4.78;;;1.60;;
60211;SDS011;46079;48.686;15.598;2023-02-25T04:13:11;5.78;;;1.65;;
60211;SDS011;46079;48.686;15.598;2023-02-25T04:15:38;5.57;;;1.60;;
60211;SDS011;46079;48.686;15.598;2023-02-25T04:18:05;4.55;;;1.60;;
60211;SDS011;46079;48.686;15.598;2023-02-25T04:20:30;4.50;;;1.40;;
60211;SDS011;46079;48.686;15.598;2023-02-25T04:22:59;5.07;;;1.70;;
60211;SDS011;46079;48.686;15.598;2023-02-25T04:25:26;3.85;;;1.33;;
60211;SDS011;46079;48.686;15.598;2023-02-25T04:27:51;5.90;;;1.40;;
60211;SDS011;46079;48.686;15.598;2023-02-25T04:30:17;4.93;;;1.70;;
60211;SDS011;46079;48.686;15.598;2023-02-25T04:32:43;5.00;;;1.50;;
60211;SDS011;46079;48.686;15.598;2023-02-25T04:35:09;4.18;;;1.40;;
60211;SDS011;46079;48.686;15.598;2023-02-25T04:37:47;5.57;;;1.60;;
60211;SDS011;46079;48.686;15.598;2023-02-25T04:40:14;4.97;;;1.40;;
60211;SDS011;46079;48.686;15.598;2023-02-25T04:42:43;4.72;;;1.40;;
60211;SDS011;46079;48.686;15.598;2023-02-25T04:45:09;4.53;;;1.30;;
60211;SDS011;46079;48.686;15.598;2023-02-25T04:47:36;5.78;;;1.60;;
60211;SDS011;46079;48.686;15.598;2023-02-25T04:50:02;5.60;;;1.42;;
60211;SDS011;46079;48.686;15.598;2023-02-25T04:52:28;6.07;;;1.55;;
60211;SDS011;46079;48.686;15.598;2023-02-25T04:54:53;7.65;;;1.73;;
60211;SDS011;46079;48.686;15.598;2023-02-25T04:57:19;5.45;;;1.42;;
60211;SDS011;46079;48.686;15.598;2023-02-25T04:59:44;6.07;;;1.60;;
60211;SDS011;46079;48.686;15.598;2023-02-25T05:02:10;4.20;;;1.30;;
60211;SDS011;46079;48.686;15.598;2023-02-25T05:04:36;4.70;;;1.58;;
60211;SDS011;46079;48.686;15.598;2023-02-25T05:07:02;3.15;;;1.30;;
60211;SDS011;46079;48.686;15.598;2023-02-25T05:09:28;5.78;;;1.58;;
60211;SDS011;46079;48.686;15.598;2023-02-25T05:11:54;4.35;;;1.40;;
60211;SDS011;46079;48.686;15.598;2023-02-25T05:14:19;3.65;;;1.23;;
60211;SDS011;46079;48.686;15.598;2023-02-25T05:16:45;5.82;;;1.60;;
60211;SDS011;46079;48.686;15.598;2023-02-25T05:19:17;7.20;;;1.67;;
60211;SDS011;46079;48.686;15.598;2023-02-25T05:21:46;4.85;;;1.50;;
60211;SDS011;46079;48.686;15.598;2023-02-25T05:24:12;4.72;;;1.38;;
60211;SDS011;46079;48.686;15.598;2023-02-25T05:26:37;4.50;;;1.30;;
60211;SDS011;46079;48.686;15.598;2023-02-25T05:29:03;5.82;;;1.52;;
60211;SDS011;46079;48.686;15.598;2023-02-25T05:31:29;4.55;;;1.38;;
60211;SDS011;46079;48.686;15.598;2023-02-25T05:33:55;4.97;;;1.55;;
60211;SDS011;46079;48.686;15.598;2023-02-25T05:36:20;5.65;;;1.70;;
60211;SDS011;46079;48.686;15.598;2023-02-25T05:38:47;4.32;;;1.13;;
60211;SDS011;46079;48.686;15.598;2023-02-25T05:41:13;4.20;;;1.27;;
60211;SDS011;46079;48.686;15.598;2023-02-25T05:43:39;4.88;;;1.75;;
60211;SDS011;46079;48.686;15.598;2023-02-25T05:46:05;4.18;;;1.30;;
60211;SDS011;46079;48.686;15.598;2023-02-25T05:48:36;4.97;;;1.35;;
60211;SDS011;46079;48.686;15.598;2023-02-25T05:51:04;5.68;;;1.40;;
60211;SDS011;46079;48.686;15.598;2023-02-25T05:53:31;5.50;;;1.77;;
60211;SDS011;46079;48.686;15.598;2023-02-25T05:55:57;6.07;;;1.40;;
60211;SDS011;46079;48.686;15.598;2023-02-25T05:58:22;3.72;;;1.20;;
60211;SDS011;46079;48.686;15.598;2023-02-25T06:00:48;4.30;;;1.20;;
60211;SDS011;46079;48.686;15.598;2023-02-25T06:03:14;4.72;;;1.30;;
60211;SDS011;46079;48.686;15.598;2023-02-25T06:05:40;5.00;;;1.40;;
60211;SDS011;46079;48.686;15.598;2023-02-25T06:08:07;3.60;;;1.13;;
60211;SDS011;46079;48.686;15.598;2023-02-25T06:10:34;3.72;;;1.20;;
60211;SDS011;46079;48.686;15.598;2023-02-25T06:13:06;4.05;;;1.20;;
60211;SDS011;46079;48.686;15.598;2023-02-25T06:15:32;4.82;;;1.40;;
60211;SDS011;46079;48.686;15.598;2023-02-25T06:17:58;3.20;;;1.10;;
60211;SDS011;46079;48.686;15.598;2023-02-25T06:20:23;4.18;;;1.30;;
60211;SDS011;46079;48.686;15.598;2023-02-25T06:22:52;5.75;;;1.52;;
60211;SDS011;46079;48.686;15.598;2023-02-25T06:25:17;4.63;;;1.25;;
60211;SDS011;46079;48.686;15.598;2023-02-25T06:27:42;4.13;;;1.30;;
60211;SDS011;46079;48.686;15.598;2023-02-25T06:30:08;6.75;;;1.35;;
60211;SDS011;46079;48.686;15.598;2023-02-25T06:32:34;3.40;;;1.13;;
60211;SDS011;46079;48.686;15.598;2023-02-25T06:35:00;4.05;;;1.20;;
60211;SDS011;46079;48.686;15.598;2023-02-25T06:37:26;4.43;;;1.42;;
60211;SDS011;46079;48.686;15.598;2023-02-25T06:39:52;4.75;;;1.40;;
60211;SDS011;46079;48.686;15.598;2023-02-25T06:42:17;4.72;;;1.20;;
60211;SDS011;46079;48.686;15.598;2023-02-25T06:44:43;4.03;;;1.10;;
60211;SDS011;46079;48.686;15.598;2023-02-25T06:47:08;4.18;;;1.45;;
60211;SDS011;46079;48.686;15.598;2023-02-25T06:49:34;4.60;;;1.30;;
60211;SDS011;46079;48.686;15.598;2023-02-25T06:51:59;4.38;;;1.25;;
60211;SDS011;46079;48.686;15.598;2023-02-25T06:54:25;3.60;;;1.20;;
60211;SDS011;46079;48.686;15.598;2023-02-25T06:56:52;3.55;;;1.25;;
60211;SDS011;46079;48.686;15.598;2023-02-25T06:59:18;3.35;;;1.17;;
60211;SDS011;46079;48.686;15.598;2023-02-25T07:01:44;5.20;;;1.38;;
60211;SDS011;46079;48.686;15.598;2023-02-25T07:04:13;4.07;;;1.38;;
60211;SDS011;46079;48.686;15.598;2023-02-25T07:06:40;2.65;;;1.10;;
60211;SDS011;46079;48.686;15.598;2023-02-25T07:09:06;3.70;;;1.05;;
60211;SDS011;46079;48.686;15.598;2023-02-25T07:11:32;3.25;;;1.10;;
60211;SDS011;46079;48.686;15.598;2023-02-25T07:14:00;3.03;;;1.10;;
60211;SDS011;46079;48.686;15.598;2023-02-25T07:16:30;7.43;;;1.50;;
60211;SDS011;46079;48.686;15.598;2023-02-25T07:18:56;8.70;;;1.88;;
60211;SDS011;46079;48.686;15.598;2023-02-25T07:21:22;6.20;;;1.50;;
60211;SDS011;46079;48.686;15.598;2023-02-25T07:23:48;6.70;;;1.60;;
60211;SDS011;46079;48.686;15.598;2023-02-25T07:26:14;6.35;;;1.60;;
60211;SDS011;46079;48.686;15.598;2023-02-25T07:28:41;5.80;;;1.40;;
60211;SDS011;46079;48.686;15.598;2023-02-25T07:31:10;6.20;;;1.42;;
60211;SDS011;46079;48.686;15.598;2023-02-25T07:33:42;5.63;;;1.27;;
60211;SDS011;46079;48.686;15.598;2023-02-25T07:36:08;4.88;;;1.40;;
60211;SDS011;46079;48.686;15.598;2023-02-25T07:38:34;6.10;;;1.25;;
60211;SDS011;46079;48.686;15.598;2023-02-25T07:41:06;4.47;;;1.27;;
60211;SDS011;46079;48.686;15.598;2023-02-25T07:43:32;5.95;;;1.40;;
60211;SDS011;46079;48.686;15.598;2023-02-25T07:45:58;5.63;;;1.30;;
60211;SDS011;46079;48.686;15.598;2023-02-25T07:48:24;6.05;;;1.50;;
60211;SDS011;46079;48.686;15.598;2023-02-25T07:50:49;5.47;;;1.00;;
60211;SDS011;46079;48.686;15.598;2023-02-25T07:53:15;6.22;;;1.08;;
60211;SDS011;46079;48.686;15.598;2023-02-25T07:55:43;2.13;;;0.68;;
60211;SDS011;46079;48.686;15.598;2023-02-25T07:58:09;2.72;;;0.80;;
60211;SDS011;46079;48.686;15.598;2023-02-25T08:00:36;2.53;;;0.80;;
60211;SDS011;46079;48.686;15.598;2023-02-25T08:03:03;2.33;;;0.80;;
60211;SDS011;46079;48.686;15.598;2023-02-25T08:05:32;2.47;;;0.70;;
60211;SDS011;46079;48.686;15.598;2023-02-25T08:07:58;2.97;;;1.00;;
60211;SDS011;46079;48.686;15.598;2023-02-25T08:10:24;2.97;;;0.70;;
60211;SDS011;46079;48.686;15.598;2023-02-25T08:12:49;1.67;;;0.60;;
60211;SDS011;46079;48.686;15.598;2023-02-25T08:15:15;1.83;;;0.68;;
60211;SDS011;46079;48.686;15.598;2023-02-25T08:17:40;2.55;;;0.90;;
60211;SDS011;46079;48.686;15.598;2023-02-25T08:20:06;2.42;;;0.80;;
60211;SDS011;46079;48.686;15.598;2023-02-25T08:22:33;2.50;;;0.80;;
60211;SDS011;46079;48.686;15.598;2023-02-25T08:24:59;2.90;;;0.70;;
60211;SDS011;46079;48.686;15.598;2023-02-25T08:27:24;3.35;;;1.00;;
60211;SDS011;46079;48.686;15.598;2023-02-25T08:29:50;1.98;;;0.73;;
60211;SDS011;46079;48.686;15.598;2023-02-25T08:32:15;2.47;;;0.88;;
60211;SDS011;46079;48.686;15.598;2023-02-25T08:34:41;1.77;;;0.70;;
60211;SDS011;46079;48.686;15.598;2023-02-25T08:37:08;4.28;;;0.90;;
60211;SDS011;46079;48.686;15.598;2023-02-25T08:39:37;2.03;;;0.65;;
60211;SDS011;46079;48.686;15.598;2023-02-25T08:42:03;2.00;;;0.70;;
60211;SDS011;46079;48.686;15.598;2023-02-25T08:44:29;4.78;;;1.00;;
60211;SDS011;46079;48.686;15.598;2023-02-25T08:46:54;2.45;;;0.73;;
60211;SDS011;46079;48.686;15.598;2023-02-25T08:49:20;3.17;;;0.80;;
60211;SDS011;46079;48.686;15.598;2023-02-25T08:51:48;4.15;;;0.90;;
60211;SDS011;46079;48.686;15.598;2023-02-25T08:54:15;2.28;;;0.75;;
60211;SDS011;46079;48.686;15.598;2023-02-25T08:56:40;3.25;;;0.80;;
60211;SDS011;46079;48.686;15.598;2023-02-25T08:59:09;1.60;;;0.80;;
60211;SDS011;46079;48.686;15.598;2023-02-25T09:01:37;3.17;;;0.70;;
60211;SDS011;46079;48.686;15.598;2023-02-25T09:04:13;2.03;;;0.73;;
60211;SDS011;46079;48.686;15.598;2023-02-25T09:06:47;3.05;;;0.80;;
60211;SDS011;46079;48.686;15.598;2023-02-25T09:09:16;2.85;;;0.80;;
60211;SDS011;46079;48.686;15.598;2023-02-25T09:11:43;1.98;;;0.65;;
60211;SDS011;46079;48.686;15.598;2023-02-25T09:14:09;2.05;;;0.70;;
60211;SDS011;46079;48.686;15.598;2023-02-25T09:16:35;2.58;;;0.63;;
60211;SDS011;46079;48.686;15.598;2023-02-25T09:19:01;1.25;;;0.60;;
60211;SDS011;46079;48.686;15.598;2023-02-25T09:21:27;1.58;;;0.60;;
60211;SDS011;46079;48.686;15.598;2023-02-25T09:23:53;2.75;;;0.70;;
60211;SDS011;46079;48.686;15.598;2023-02-25T09:26:19;1.83;;;0.70;;
60211;SDS011;46079;48.686;15.598;2023-02-25T09:28:46;2.40;;;0.70;;
60211;SDS011;46079;48.686;15.598;2023-02-25T09:31:12;1.95;;;0.75;;
60211;SDS011;46079;48.686;15.598;2023-02-25T09:33:38;2.33;;;0.60;;
60211;SDS011;46079;48.686;15.598;2023-02-25T09:36:14;1.90;;;0.60;;
60211;SDS011;46079;48.686;15.598;2023-02-25T09:38:42;1.42;;;0.70;;
60211;SDS011;46079;48.686;15.598;2023-02-25T09:41:30;1.38;;;0.50;;
60211;SDS011;46079;48.686;15.598;2023-02-25T09:44:08;1.90;;;0.60;;
60211;SDS011;46079;48.686;15.598;2023-02-25T09:46:48;2.38;;;0.70;;
60211;SDS011;46079;48.686;15.598;2023-02-25T09:49:19;1.88;;;0.60;;
60211;SDS011;46079;48.686;15.598;2023-02-25T09:52:09;1.90;;;0.70;;
60211;SDS011;46079;48.686;15.598;2023-02-25T09:54:46;2.00;;;0.60;;
60211;SDS011;46079;48.686;15.598;2023-02-25T09:57:17;2.92;;;0.50;;
60211;SDS011;46079;48.686;15.598;2023-02-25T09:59:46;2.75;;;0.63;;
60211;SDS011;46079;48.686;15.598;2023-02-25T10:10:58;1.83;;;0.60;;
60211;SDS011;46079;48.686;15.598;2023-02-25T10:16:20;1.30;;;0.60;;
60211;SDS011;46079;48.686;15.598;2023-02-25T10:22:21;1.55;;;0.60;;
60211;SDS011;46079;48.686;15.598;2023-02-25T10:25:14;3.58;;;0.70;;
60211;SDS011;46079;48.686;15.598;2023-02-25T10:28:04;1.88;;;0.60;;
60211;SDS011;46079;48.686;15.598;2023-02-25T10:33:07;3.00;;;0.70;;
60211;SDS011;46079;48.686;15.598;2023-02-25T10:35:45;1.65;;;0.60;;
60211;SDS011;46079;48.686;15.598;2023-02-25T10:38:10;2.53;;;0.60;;
60211;SDS011;46079;48.686;15.598;2023-02-25T10:40:36;2.17;;;0.60;;
60211;SDS011;46079;48.686;15.598;2023-02-25T10:49:24;2.50;;;0.60;;
60211;SDS011;46079;48.686;15.598;2023-02-25T10:52:04;2.08;;;0.70;;
60211;SDS011;46079;48.686;15.598;2023-02-25T10:54:48;1.13;;;0.50;;
60211;SDS011;46079;48.686;15.598;2023-02-25T10:57:16;1.15;;;0.57;;
60211;SDS011;46079;48.686;15.598;2023-02-25T10:59:59;1.27;;;0.52;;
60211;SDS011;46079;48.686;15.598;2023-02-25T11:02:28;1.98;;;0.70;;
60211;SDS011;46079;48.686;15.598;2023-02-25T11:04:58;2.22;;;0.60;;
60211;SDS011;46079;48.686;15.598;2023-02-25T11:10:20;1.77;;;0.60;;
60211;SDS011;46079;48.686;15.598;2023-02-25T11:12:50;2.42;;;0.70;;
60211;SDS011;46079;48.686;15.598;2023-02-25T11:17:54;1.63;;;0.60;;
60211;SDS011;46079;48.686;15.598;2023-02-25T11:20:24;2.80;;;0.75;;
60211;SDS011;46079;48.686;15.598;2023-02-25T11:22:52;5.25;;;1.27;;
60211;SDS011;46079;48.686;15.598;2023-02-25T11:25:20;11.27;;;2.10;;
60211;SDS011;46079;48.686;15.598;2023-02-25T11:27:54;8.27;;;1.95;;
60211;SDS011;46079;48.686;15.598;2023-02-25T11:30:32;10.50;;;2.40;;
60211;SDS011;46079;48.686;15.598;2023-02-25T11:33:01;12.80;;;2.47;;
60211;SDS011;46079;48.686;15.598;2023-02-25T11:38:11;12.25;;;2.22;;
60211;SDS011;46079;48.686;15.598;2023-02-25T11:40:56;13.98;;;2.67;;
60211;SDS011;46079;48.686;15.598;2023-02-25T11:43:35;8.90;;;2.10;;
60211;SDS011;46079;48.686;15.598;2023-02-25T11:52:06;12.68;;;2.70;;
60211;SDS011;46079;48.686;15.598;2023-02-25T11:54:24;10.18;;;1.90;;
60211;SDS011;46079;48.686;15.598;2023-02-25T11:59:56;10.35;;;2.00;;
60211;SDS011;46079;48.686;15.598;2023-02-25T12:19:36;8.45;;;1.70;;
60211;SDS011;46079;48.686;15.598;2023-02-25T12:28:15;6.88;;;1.70;;
60211;SDS011;46079;48.686;15.598;2023-02-25T12:31:17;8.82;;;1.80;;
60211;SDS011;46079;48.686;15.598;2023-02-25T12:47:44;7.97;;;1.45;;
60211;SDS011;46079;48.686;15.598;2023-02-25T12:53:24;8.40;;;1.80;;
60211;SDS011;46079;48.686;15.598;2023-02-25T12:55:55;7.53;;;1.70;;
60211;SDS011;46079;48.686;15.598;2023-02-25T13:12:42;6.57;;;1.58;;
60211;SDS011;46079;48.686;15.598;2023-02-25T13:14:48;8.25;;;1.70;;
60211;SDS011;46079;48.686;15.598;2023-02-25T13:23:37;6.82;;;1.52;;
60211;SDS011;46079;48.686;15.598;2023-02-25T13:59:24;7.60;;;1.50;;
60211;SDS011;46079;48.686;15.598;2023-02-25T14:01:58;5.55;;;1.17;;
60211;SDS011;46079;48.686;15.598;2023-02-25T14:13:03;5.03;;;1.10;;
60211;SDS011;46079;48.686;15.598;2023-02-25T14:29:54;5.93;;;1.20;;
60211;SDS011;46079;48.686;15.598;2023-02-25T14:45:43;3.70;;;1.00;;
60211;SDS011;46079;48.686;15.598;2023-02-25T14:48:18;4.97;;;1.20;;
60211;SDS011;46079;48.686;15.598;2023-02-25T14:53:34;3.67;;;0.90;;
60211;SDS011;46079;48.686;15.598;2023-02-25T14:59:28;4.63;;;1.15;;
60211;SDS011;46079;48.686;15.598;2023-02-25T15:05:07;4.93;;;1.20;;
60211;SDS011;46079;48.686;15.598;2023-02-25T15:16:44;4.97;;;1.20;;
60211;SDS011;46079;48.686;15.598;2023-02-25T15:22:28;5.72;;;1.20;;
60211;SDS011;46079;48.686;15.598;2023-02-25T15:27:46;4.55;;;1.13;;
60211;SDS011;46079;48.686;15.598;2023-02-25T15:30:17;5.00;;;1.10;;
60211;SDS011;46079;48.686;15.598;2023-02-25T15:36:19;3.67;;;0.98;;
60211;SDS011;46079;48.686;15.598;2023-02-25T15:38:20;3.90;;;0.88;;
60211;SDS011;46079;48.686;15.598;2023-02-25T15:41:02;5.85;;;1.25;;
60211;SDS011;46079;48.686;15.598;2023-02-25T15:48:34;5.20;;;1.10;;
60211;SDS011;46079;48.686;15.598;2023-02-25T15:51:02;3.53;;;0.85;;
60211;SDS011;46079;48.686;15.598;2023-02-25T16:00:54;3.47;;;0.82;;
60211;SDS011;46079;48.686;15.598;2023-02-25T16:05:50;4.65;;;0.90;;
60211;SDS011;46079;48.686;15.598;2023-02-25T16:08:21;3.08;;;0.88;;
60211;SDS011;46079;48.686;15.598;2023-02-25T16:10:49;4.35;;;1.00;;
60211;SDS011;46079;48.686;15.598;2023-02-25T16:13:28;3.60;;;0.90;;
60211;SDS011;46079;48.686;15.598;2023-02-25T16:18:34;5.03;;;1.20;;
60211;SDS011;46079;48.686;15.598;2023-02-25T16:21:03;3.67;;;0.90;;
60211;SDS011;46079;48.686;15.598;2023-02-25T16:23:32;3.10;;;0.80;;
60211;SDS011;46079;48.686;15.598;2023-02-25T16:26:08;3.23;;;0.70;;
60211;SDS011;46079;48.686;15.598;2023-02-25T16:34:08;3.53;;;0.90;;
60211;SDS011;46079;48.686;15.598;2023-02-25T16:39:19;3.67;;;1.08;;
60211;SDS011;46079;48.686;15.598;2023-02-25T16:41:47;2.97;;;0.90;;
60211;SDS011;46079;48.686;15.598;2023-02-25T16:44:21;4.75;;;1.10;;
60211;SDS011;46079;48.686;15.598;2023-02-25T16:46:52;2.92;;;0.73;;
60211;SDS011;46079;48.686;15.598;2023-02-25T16:49:53;3.72;;;0.90;;
60211;SDS011;46079;48.686;15.598;2023-02-25T16:52:15;3.53;;;0.90;;
60211;SDS011;46079;48.686;15.598;2023-02-25T16:54:43;2.20;;;0.50;;
60211;SDS011;46079;48.686;15.598;2023-02-25T16:57:17;3.55;;;0.90;;
60211;SDS011;46079;48.686;15.598;2023-02-25T16:59:44;4.13;;;0.90;;
60211;SDS011;46079;48.686;15.598;2023-02-25T17:04:40;3.42;;;0.90;;
60211;SDS011;46079;48.686;15.598;2023-02-25T17:07:12;4.88;;;0.95;;
60211;SDS011;46079;48.686;15.598;2023-02-25T17:12:28;5.15;;;1.00;;
60211;SDS011;46079;48.686;15.598;2023-02-25T17:15:06;3.60;;;0.82;;
60211;SDS011;46079;48.686;15.598;2023-02-25T17:17:39;3.10;;;0.98;;
60211;SDS011;46079;48.686;15.598;2023-02-25T17:20:11;2.92;;;0.80;;
60211;SDS011;46079;48.686;15.598;2023-02-25T17:22:40;4.07;;;1.00;;
60211;SDS011;46079;48.686;15.598;2023-02-25T17:25:08;2.75;;;0.70;;
60211;SDS011;46079;48.686;15.598;2023-02-25T17:27:39;2.75;;;0.80;;
60211;SDS011;46079;48.686;15.598;2023-02-25T17:30:06;3.55;;;0.80;;
60211;SDS011;46079;48.686;15.598;2023-02-25T17:32:57;2.90;;;0.82;;
60211;SDS011;46079;48.686;15.598;2023-02-25T17:35:24;3.58;;;0.80;;
60211;SDS011;46079;48.686;15.598;2023-02-25T17:37:52;4.22;;;1.00;;
60211;SDS011;46079;48.686;15.598;2023-02-25T17:40:19;3.63;;;0.88;;
60211;SDS011;46079;48.686;15.598;2023-02-25T17:42:48;2.90;;;0.80;;
60211;SDS011;46079;48.686;15.598;2023-02-25T17:48:04;2.67;;;0.70;;
60211;SDS011;46079;48.686;15.598;2023-02-25T17:50:38;2.72;;;0.70;;
60211;SDS011;46079;48.686;15.598;2023-02-25T17:53:03;2.60;;;0.75;;
60211;SDS011;46079;48.686;15.598;2023-02-25T17:55:33;3.60;;;0.82;;
60211;SDS011;46079;48.686;15.598;2023-02-25T17:57:59;2.75;;;0.75;;
60211;SDS011;46079;48.686;15.598;2023-02-25T18:00:27;3.15;;;0.80;;
60211;SDS011;46079;48.686;15.598;2023-02-25T18:05:53;3.45;;;0.82;;
60211;SDS011;46079;48.686;15.598;2023-02-25T18:08:23;3.33;;;0.90;;
60211;SDS011;46079;48.686;15.598;2023-02-25T18:10:54;2.42;;;0.70;;
60211;SDS011;46079;48.686;15.598;2023-02-25T18:13:26;3.83;;;0.80;;
60211;SDS011;46079;48.686;15.598;2023-02-25T18:16:21;2.80;;;0.77;;
60211;SDS011;46079;48.686;15.598;2023-02-25T18:21:59;2.63;;;0.75;;
60211;SDS011;46079;48.686;15.598;2023-02-25T18:24:29;2.88;;;0.60;;
60211;SDS011;46079;48.686;15.598;2023-02-25T18:27:13;2.08;;;0.88;;
60211;SDS011;46079;48.686;15.598;2023-02-25T18:29:52;2.53;;;0.90;;
60211;SDS011;46079;48.686;15.598;2023-02-25T18:32:19;3.67;;;0.85;;
60211;SDS011;46079;48.686;15.598;2023-02-25T18:34:45;2.92;;;0.82;;
60211;SDS011;46079;48.686;15.598;2023-02-25T18:37:14;3.05;;;0.85;;
60211;SDS011;46079;48.686;15.598;2023-02-25T18:39:43;2.97;;;0.80;;
60211;SDS011;46079;48.686;15.598;2023-02-25T18:42:13;3.60;;;0.90;;
60211;SDS011;46079;48.686;15.598;2023-02-25T18:44:41;1.70;;;0.60;;
60211;SDS011;46079;48.686;15.598;2023-02-25T18:47:08;3.03;;;0.80;;
60211;SDS011;46079;48.686;15.598;2023-02-25T18:49:33;3.75;;;0.82;;
60211;SDS011;46079;48.686;15.598;2023-02-25T18:51:59;3.08;;;0.80;;
60211;SDS011;46079;48.686;15.598;2023-02-25T18:54:24;3.15;;;0.85;;
60211;SDS011;46079;48.686;15.598;2023-02-25T18:56:50;1.75;;;0.60;;
60211;SDS011;46079;48.686;15.598;2023-02-25T18:59:15;3.33;;;0.90;;
60211;SDS011;46079;48.686;15.598;2023-02-25T19:01:41;2.55;;;0.75;;
60211;SDS011;46079;48.686;15.598;2023-02-25T19:04:09;2.88;;;0.82;;
60211;SDS011;46079;48.686;15.598;2023-02-25T19:06:40;2.30;;;0.70;;
60211;SDS011;46079;48.686;15.598;2023-02-25T19:09:05;3.53;;;0.80;;
60211;SDS011;46079;48.686;15.598;2023-02-25T19:11:31;2.53;;;0.70;;
60211;SDS011;46079;48.686;15.598;2023-02-25T19:14:00;3.95;;;0.90;;
60211;SDS011;46079;48.686;15.598;2023-02-25T19:16:27;2.35;;;0.85;;